메인 페이지
METAR-TAF:

METAR-TAF

공항 :

우아리 부메디엔 공항

알제, 알제리

위도: 36-43N, 경도: 003-15E, 고도: 25m

현재 날씨관측

예보는 26분 전, 02:30시(UTC)에 발표되었습니다.
무풍
온도 7°C
습도 81%
기압 1022 hPa
시정 10km 이상
고도 2600ft 상공 구름 조금

METAR: DAAG 190230Z 00000KT 9999 FEW026 07/04 Q1022

시각: 03:56 (02:56 UTC)

예보

예보는 3 시간 56분 전, 23:00시(UTC)에 발표되었습니다.
예보 대상 시간: 19일 00시부터 19일 24시까지 (UTC)
12kt
시정: 8000m
고도 2600ft 상공 구름 조금
고도 8300ft 상공 구름 보통
확률 40% :
일시적
19일 12시부터 19일 24시까지 (UTC)
시정: 5000m
고도 2300ft 상공 구름 조금, 적란운.
약한비
전환 중
19일 18시부터 19일 21시까지 (UTC)
여러 방향의 바람 2kt

TAF: DAAG 182300Z 1900/1924 08012KT 8000 FEW026 SCT083 PROB40 TEMPO 1912/1924 5000 -RA FEW023CB BECMG 1918/1921 VRB02KT

4,000개 이상의 공항 관측 자료 및 예보 (METAR 및 TAF 보고).

지도상에서 검색 가능한 기상관측소가 노란 점과 빨간 점으로 표시되어 있습니다.

기상관측소 명을 보려면 표시 위로 마우스를 이동하세요.

날씨 관측과 예보를 보려면 클릭하세요.

지도 변경 : 확대하려면 엑스 표시가 있는 녹색 버튼, 축소하려면 빼기 표시가 있는 녹색 버튼, 다음 페이지의 지도를 보려면 녹색 화살표를 클릭하세요.


METAR-TAF: